createdAt,value
2023-05-08T00:01:44.748Z,13.30
2023-05-08T00:04:13.384Z,13.30
2023-05-08T00:06:41.325Z,13.00
2023-05-08T00:09:09.760Z,13.00
2023-05-08T00:11:37.562Z,13.30
2023-05-08T00:14:05.799Z,13.00
2023-05-08T00:16:33.817Z,13.40
2023-05-08T00:19:03.097Z,13.40
2023-05-08T00:21:31.120Z,13.10
2023-05-08T00:23:58.887Z,13.00
2023-05-08T00:26:26.826Z,13.00
2023-05-08T00:28:54.606Z,13.00
2023-05-08T00:31:22.387Z,13.00
2023-05-08T00:33:50.240Z,13.20
2023-05-08T00:36:19.626Z,13.00
2023-05-08T00:38:47.423Z,13.20
2023-05-08T00:41:16.054Z,13.10
2023-05-08T00:43:43.871Z,13.30
2023-05-08T00:46:11.691Z,13.30
2023-05-08T00:48:39.501Z,13.10
2023-05-08T00:51:08.370Z,13.00
2023-05-08T00:53:39.733Z,13.00
2023-05-08T00:56:07.860Z,13.10
2023-05-08T00:58:35.665Z,13.00
2023-05-08T01:01:03.668Z,13.10
2023-05-08T01:03:31.673Z,13.00
2023-05-08T01:05:59.559Z,13.10
2023-05-08T01:08:27.339Z,13.10
2023-05-08T01:11:07.955Z,13.10
2023-05-08T01:13:52.176Z,13.00
2023-05-08T01:16:28.457Z,13.00
2023-05-08T01:19:00.956Z,12.90
2023-05-08T01:21:31.180Z,13.00
2023-05-08T01:24:26.303Z,13.10
2023-05-08T01:27:18.597Z,13.20
2023-05-08T01:30:08.821Z,13.10
2023-05-08T01:32:38.653Z,13.20
2023-05-08T01:35:11.421Z,13.10
2023-05-08T01:37:43.083Z,12.90
2023-05-08T01:40:14.218Z,12.90
2023-05-08T01:42:47.488Z,12.90
2023-05-08T01:45:17.780Z,12.90
2023-05-08T01:47:47.000Z,12.90
2023-05-08T01:50:16.149Z,12.90
2023-05-08T01:52:46.304Z,13.00
2023-05-08T01:55:17.279Z,13.00
2023-05-08T01:57:47.165Z,13.00
2023-05-08T02:00:16.140Z,13.10
2023-05-08T02:02:43.998Z,13.20
2023-05-08T02:05:13.222Z,13.10
2023-05-08T02:07:41.014Z,13.10
2023-05-08T02:10:09.979Z,13.40
2023-05-08T02:12:38.065Z,13.20
2023-05-08T02:15:06.822Z,13.10
2023-05-08T02:17:34.595Z,13.00
2023-05-08T02:20:03.420Z,13.00
2023-05-08T02:22:32.873Z,13.00
2023-05-08T02:25:00.656Z,13.00
2023-05-08T02:27:29.183Z,13.10
2023-05-08T02:29:56.986Z,13.20
2023-05-08T02:32:26.182Z,13.10
2023-05-08T02:35:02.528Z,13.00
2023-05-08T02:37:32.490Z,13.20
2023-05-08T02:40:00.346Z,13.10
2023-05-08T02:42:28.135Z,13.00
2023-05-08T02:44:55.995Z,12.90
2023-05-08T02:47:25.842Z,12.90
2023-05-08T02:49:55.274Z,12.80
2023-05-08T02:52:25.590Z,12.80
2023-05-08T02:54:57.539Z,12.90
2023-05-08T02:57:31.920Z,13.00
2023-05-08T03:00:02.023Z,12.90
2023-05-08T03:02:33.235Z,12.90
2023-05-08T03:05:04.294Z,13.00
2023-05-08T03:07:32.072Z,12.90
2023-05-08T03:10:03.928Z,13.10
2023-05-08T03:12:32.223Z,12.90
2023-05-08T03:15:01.880Z,12.90
2023-05-08T03:17:30.080Z,13.10
2023-05-08T03:20:00.579Z,12.80
2023-05-08T03:22:28.868Z,12.80
2023-05-08T03:24:56.800Z,12.80
2023-05-08T03:27:26.192Z,12.80
2023-05-08T03:29:53.990Z,12.70
2023-05-08T03:32:22.118Z,12.70
2023-05-08T03:34:50.025Z,12.90
2023-05-08T03:37:17.810Z,13.00
2023-05-08T03:39:45.585Z,13.00
2023-05-08T03:42:21.092Z,13.00
2023-05-08T03:44:50.810Z,13.00
2023-05-08T03:47:18.861Z,13.00
2023-05-08T03:49:46.817Z,13.10
2023-05-08T03:52:14.675Z,13.00
2023-05-08T03:54:42.450Z,13.20
2023-05-08T03:57:10.256Z,13.10
2023-05-08T03:59:47.941Z,13.20
2023-05-08T04:02:21.126Z,13.40
2023-05-08T04:04:51.439Z,13.20
2023-05-08T04:07:22.900Z,13.10
2023-05-08T04:09:56.268Z,13.30
2023-05-08T04:12:27.652Z,13.30
2023-05-08T04:14:57.127Z,13.10
2023-05-08T04:17:30.110Z,13.20
2023-05-08T04:20:01.922Z,13.10
2023-05-08T04:22:29.781Z,13.20
2023-05-08T04:24:58.380Z,13.10
2023-05-08T04:27:26.364Z,13.20
2023-05-08T04:29:54.383Z,13.20
2023-05-08T04:32:22.156Z,13.30
2023-05-08T04:34:51.294Z,13.40
2023-05-08T04:37:28.775Z,13.20
2023-05-08T04:39:56.541Z,13.40
2023-05-08T04:42:24.378Z,13.30
2023-05-08T04:44:52.618Z,13.20
2023-05-08T04:47:20.402Z,13.30
2023-05-08T04:49:48.175Z,13.40
2023-05-08T04:52:17.288Z,13.40
2023-05-08T04:54:45.064Z,13.10
2023-05-08T04:57:12.847Z,13.10
2023-05-08T04:59:40.694Z,13.00
2023-05-08T05:02:09.562Z,13.10
2023-05-08T05:04:37.565Z,13.10
2023-05-08T05:07:05.356Z,13.30
2023-05-08T05:09:36.970Z,13.40
2023-05-08T05:12:04.863Z,13.40
2023-05-08T05:14:32.651Z,13.20
2023-05-08T05:17:00.443Z,13.00
2023-05-08T05:19:28.217Z,13.10
2023-05-08T05:21:55.986Z,13.20
2023-05-08T05:24:23.766Z,13.00
2023-05-08T05:26:52.990Z,13.10
2023-05-08T05:29:20.782Z,12.90
2023-05-08T05:31:48.575Z,13.00
2023-05-08T05:34:16.374Z,13.10
2023-05-08T05:36:44.143Z,13.10
2023-05-08T05:39:11.957Z,13.10
2023-05-08T05:41:39.768Z,13.20
2023-05-08T05:44:08.882Z,13.20
2023-05-08T05:46:36.695Z,13.00
2023-05-08T05:49:04.506Z,13.20
2023-05-08T05:51:32.273Z,13.10
2023-05-08T05:54:00.061Z,13.20
2023-05-08T05:56:27.871Z,13.20
2023-05-08T05:58:55.639Z,13.10
2023-05-08T06:01:25.305Z,13.20
2023-05-08T06:03:53.133Z,13.30
2023-05-08T06:06:21.072Z,13.20
2023-05-08T06:08:49.232Z,13.30
2023-05-08T06:11:17.072Z,13.20
2023-05-08T06:13:44.926Z,13.10
2023-05-08T06:16:13.158Z,13.20
2023-05-08T06:18:42.323Z,13.10
2023-05-08T06:21:10.121Z,13.10
2023-05-08T06:23:37.907Z,13.10
2023-05-08T06:26:05.902Z,13.20
2023-05-08T06:28:34.073Z,13.30
2023-05-08T06:31:01.851Z,13.30
2023-05-08T06:33:29.942Z,13.40
2023-05-08T06:35:59.081Z,13.50
2023-05-08T06:38:26.944Z,13.50
2023-05-08T06:40:55.302Z,13.30
2023-05-08T06:43:23.128Z,13.30
2023-05-08T06:45:52.947Z,13.50
2023-05-08T06:48:20.846Z,13.40
2023-05-08T06:50:48.988Z,13.30
2023-05-08T06:53:18.123Z,13.40
2023-05-08T06:55:45.943Z,13.20
2023-05-08T06:58:13.782Z,13.10
2023-05-08T07:00:41.556Z,12.90
2023-05-08T07:03:09.427Z,13.00
2023-05-08T07:05:37.281Z,13.10
2023-05-08T07:08:05.385Z,13.30
2023-05-08T07:10:34.545Z,13.30
2023-05-08T07:13:02.595Z,13.20
2023-05-08T07:15:32.529Z,13.10
2023-05-08T07:18:00.685Z,13.10
2023-05-08T07:20:28.659Z,13.10
2023-05-08T07:22:56.452Z,13.10
2023-05-08T07:25:24.264Z,13.10
2023-05-08T07:27:53.386Z,13.00
2023-05-08T07:30:21.206Z,13.00
2023-05-08T07:32:49.045Z,13.10
2023-05-08T07:35:18.153Z,13.10
2023-05-08T07:37:45.947Z,13.30
2023-05-08T07:40:13.918Z,13.10
2023-05-08T07:42:42.057Z,13.20
2023-05-08T07:45:12.842Z,13.30
2023-05-08T07:47:41.206Z,13.30
2023-05-08T07:50:09.365Z,13.10
2023-05-08T07:52:37.137Z,13.40
2023-05-08T07:55:05.607Z,13.50
2023-05-08T07:57:37.976Z,13.60
2023-05-08T08:00:07.520Z,13.80
2023-05-08T08:02:36.704Z,13.60
2023-05-08T08:05:05.056Z,13.60
2023-05-08T08:07:33.573Z,13.60
2023-05-08T08:10:01.434Z,13.50
2023-05-08T08:12:29.477Z,13.70
2023-05-08T08:14:57.297Z,13.80
2023-05-08T08:17:26.955Z,13.60
2023-05-08T08:19:57.787Z,13.50
2023-05-08T08:22:25.590Z,13.70
2023-05-08T08:24:54.915Z,13.60
2023-05-08T08:27:23.251Z,13.60
2023-05-08T08:29:52.549Z,13.60
2023-05-08T08:32:26.575Z,13.70
2023-05-08T08:34:54.369Z,13.50
2023-05-08T08:37:24.146Z,13.70
2023-05-08T08:39:51.942Z,13.70
2023-05-08T08:42:19.726Z,13.60
2023-05-08T08:44:47.527Z,13.60
2023-05-08T08:47:15.311Z,13.80
2023-05-08T08:49:44.469Z,13.90
2023-05-08T08:52:18.891Z,13.80
2023-05-08T08:54:48.068Z,13.90
2023-05-08T08:57:15.979Z,14.00
2023-05-08T08:59:44.255Z,13.90
2023-05-08T09:02:17.590Z,14.10
2023-05-08T09:04:45.730Z,14.30
2023-05-08T09:07:13.513Z,14.20
2023-05-08T09:09:41.877Z,14.00
2023-05-08T09:12:11.375Z,14.00
2023-05-08T09:14:39.153Z,13.90
2023-05-08T09:17:06.950Z,14.00
2023-05-08T09:19:34.758Z,14.00
2023-05-08T09:22:02.529Z,13.90
2023-05-08T09:24:55.004Z,13.90
2023-05-08T09:27:24.512Z,14.00
2023-05-08T09:30:02.836Z,13.80
2023-05-08T09:32:30.724Z,14.00
2023-05-08T09:34:58.671Z,13.90
2023-05-08T09:37:26.629Z,13.90
2023-05-08T09:39:54.711Z,13.90
2023-05-08T09:42:25.294Z,13.80
2023-05-08T09:44:53.879Z,13.80
2023-05-08T09:47:23.055Z,13.90
2023-05-08T09:50:00.308Z,13.80
2023-05-08T09:52:28.210Z,13.90
2023-05-08T09:55:00.158Z,14.00
2023-05-08T09:57:29.399Z,14.10
2023-05-08T10:00:07.821Z,14.10
2023-05-08T10:02:35.802Z,14.00
2023-05-08T10:05:04.290Z,13.90
2023-05-08T10:07:32.514Z,13.90
2023-05-08T10:10:01.458Z,14.00
2023-05-08T10:12:30.759Z,14.20
2023-05-08T10:14:58.726Z,14.30
2023-05-08T10:17:27.997Z,14.20
2023-05-08T10:20:01.070Z,14.50
2023-05-08T10:22:29.213Z,14.30
2023-05-08T10:24:57.735Z,14.10
2023-05-08T10:27:31.979Z,14.40
2023-05-08T10:30:02.078Z,14.40
2023-05-08T10:32:30.022Z,14.60
2023-05-08T10:34:59.818Z,14.60
2023-05-08T10:37:28.258Z,14.60
2023-05-08T10:39:56.025Z,14.80
2023-05-08T10:42:23.816Z,14.50
2023-05-08T10:44:52.937Z,14.40
2023-05-08T10:47:23.596Z,14.70
2023-05-08T10:49:57.086Z,14.80
2023-05-08T10:52:28.335Z,14.60
2023-05-08T10:55:17.524Z,14.60
2023-05-08T10:58:02.776Z,14.90
2023-05-08T11:00:34.863Z,14.90
2023-05-08T11:03:20.010Z,14.60
2023-05-08T11:05:52.473Z,14.70
2023-05-08T11:08:23.277Z,14.80
2023-05-08T11:10:53.404Z,14.90
2023-05-08T11:13:21.208Z,15.10
2023-05-08T11:15:52.059Z,15.00
2023-05-08T11:18:19.860Z,15.00
2023-05-08T11:20:56.519Z,15.10
2023-05-08T11:23:24.926Z,15.00
2023-05-08T11:26:01.158Z,14.70
2023-05-08T11:28:29.126Z,14.70
2023-05-08T11:30:58.268Z,14.50
2023-05-08T11:33:31.311Z,14.70
2023-05-08T11:35:59.941Z,14.50
2023-05-08T11:38:32.537Z,14.60
2023-05-08T11:41:06.819Z,14.80
2023-05-08T11:44:00.750Z,14.80
2023-05-08T11:46:40.127Z,14.70
2023-05-08T11:49:11.558Z,14.80
2023-05-08T11:51:39.424Z,14.90
2023-05-08T11:54:07.366Z,14.80
2023-05-08T11:56:35.149Z,14.80
2023-05-08T11:59:04.436Z,14.60
2023-05-08T12:01:33.852Z,14.60
2023-05-08T12:04:02.780Z,14.70
2023-05-08T12:06:31.774Z,14.60
2023-05-08T12:08:59.804Z,14.80
2023-05-08T12:11:27.681Z,14.70
2023-05-08T12:13:55.569Z,14.80
2023-05-08T12:16:24.296Z,14.90
2023-05-08T12:18:53.749Z,14.90
2023-05-08T12:21:21.922Z,14.90
2023-05-08T12:23:49.980Z,14.90
2023-05-08T12:26:17.771Z,14.90
2023-05-08T12:28:45.986Z,14.80
2023-05-08T12:31:14.024Z,15.00
2023-05-08T12:33:42.481Z,14.90
2023-05-08T12:36:11.608Z,14.90
2023-05-08T12:38:39.386Z,15.00
2023-05-08T12:41:08.615Z,15.10
2023-05-08T12:43:36.952Z,15.10
2023-05-08T12:46:05.025Z,15.00
2023-05-08T12:48:32.878Z,14.90
2023-05-08T12:51:04.747Z,15.00
2023-05-08T12:53:34.048Z,14.80
2023-05-08T12:56:03.214Z,14.80
2023-05-08T12:58:31.786Z,15.00
2023-05-08T13:01:09.826Z,15.10
2023-05-08T13:03:38.366Z,15.00
2023-05-08T13:06:06.588Z,14.90
2023-05-08T13:08:37.225Z,15.00
2023-05-08T13:11:05.616Z,15.10
2023-05-08T13:13:34.363Z,15.10
2023-05-08T13:16:03.892Z,15.10
2023-05-08T13:18:31.745Z,15.10
2023-05-08T13:20:59.670Z,15.00
2023-05-08T13:23:27.440Z,15.10
2023-05-08T13:25:56.588Z,15.00
2023-05-08T13:28:24.343Z,15.00
2023-05-08T13:30:52.144Z,15.00
2023-05-08T13:33:19.919Z,15.20
2023-05-08T13:35:47.714Z,15.20
2023-05-08T13:38:15.544Z,15.10
2023-05-08T13:40:43.362Z,15.30
2023-05-08T13:43:12.482Z,15.10
2023-05-08T13:45:40.309Z,15.10
2023-05-08T13:48:08.424Z,15.30
2023-05-08T13:50:36.248Z,15.20
2023-05-08T13:53:04.718Z,15.10
2023-05-08T13:55:32.503Z,15.20
2023-05-08T13:58:00.310Z,15.10
2023-05-08T14:00:29.535Z,15.00
2023-05-08T14:02:57.416Z,15.00
2023-05-08T14:05:25.288Z,15.00
2023-05-08T14:07:53.077Z,15.10
2023-05-08T14:10:20.970Z,15.00
2023-05-08T14:12:48.808Z,15.00
2023-05-08T14:15:16.984Z,15.00
2023-05-08T14:17:46.313Z,14.90
2023-05-08T14:20:14.106Z,15.10
2023-05-08T14:22:41.909Z,15.00
2023-05-08T14:25:10.773Z,15.10
2023-05-08T14:27:38.695Z,15.10
2023-05-08T14:30:08.081Z,14.90
2023-05-08T14:32:35.968Z,15.00
2023-05-08T14:35:05.448Z,15.00
2023-05-08T14:37:33.249Z,14.80
2023-05-08T14:40:01.081Z,14.80
2023-05-08T14:42:28.854Z,14.80
2023-05-08T14:44:56.935Z,14.80
2023-05-08T14:47:24.831Z,14.60
2023-05-08T14:49:53.613Z,14.70
2023-05-08T14:52:22.984Z,14.80
2023-05-08T14:54:53.462Z,14.70
2023-05-08T14:57:21.654Z,14.80
2023-05-08T15:02:37.259Z,14.90
2023-05-08T15:05:10.836Z,14.70
2023-05-08T15:07:43.136Z,14.80
2023-05-08T15:10:11.594Z,14.50
2023-05-08T15:12:39.416Z,14.70
2023-05-08T15:15:08.155Z,14.70
2023-05-08T15:17:36.631Z,14.70
2023-05-08T15:20:04.843Z,14.70
2023-05-08T15:22:32.686Z,14.60
2023-05-08T15:25:02.787Z,14.60
2023-05-08T15:27:30.671Z,14.70
2023-05-08T15:29:58.519Z,14.50
2023-05-08T15:32:26.449Z,14.60
2023-05-08T15:34:54.283Z,14.50
2023-05-08T15:37:22.067Z,14.50
2023-05-08T15:39:50.224Z,14.60
2023-05-08T15:42:20.580Z,14.30
2023-05-08T15:47:19.609Z,14.20
2023-05-08T15:49:47.407Z,14.30
2023-05-08T15:52:18.446Z,14.40
2023-05-08T15:54:46.278Z,14.40
2023-05-08T15:57:14.101Z,14.30
2023-05-08T15:59:43.238Z,14.30
2023-05-08T16:02:11.075Z,14.40
2023-05-08T16:04:38.906Z,14.30
2023-05-08T16:07:06.687Z,14.40
2023-05-08T16:09:34.518Z,14.30
2023-05-08T16:12:02.319Z,14.00
2023-05-08T16:14:30.110Z,14.20
2023-05-08T16:16:59.247Z,14.10
2023-05-08T16:19:27.045Z,14.10
2023-05-08T16:21:54.852Z,14.10
2023-05-08T16:24:22.703Z,14.10
2023-05-08T16:26:50.883Z,14.20
2023-05-08T16:29:18.875Z,14.00
2023-05-08T16:31:46.688Z,14.00
2023-05-08T16:34:15.832Z,14.00
2023-05-08T16:36:44.024Z,13.90
2023-05-08T16:39:12.230Z,14.00
2023-05-08T16:41:40.119Z,13.80
2023-05-08T16:44:07.950Z,13.90
2023-05-08T16:46:35.765Z,14.00
2023-05-08T16:49:03.558Z,14.00
2023-05-08T16:51:33.000Z,13.80
2023-05-08T16:54:00.788Z,13.90
2023-05-08T16:56:28.570Z,13.90
2023-05-08T16:58:56.564Z,14.00
2023-05-08T17:01:24.361Z,14.00
2023-05-08T17:03:52.123Z,14.10
2023-05-08T17:06:20.641Z,13.90
2023-05-08T17:08:49.771Z,13.90
2023-05-08T17:11:17.556Z,14.00
2023-05-08T17:13:46.167Z,13.80
2023-05-08T17:16:14.002Z,13.80
2023-05-08T17:18:41.814Z,13.80
2023-05-08T17:21:09.812Z,13.90
2023-05-08T17:23:37.618Z,14.00
2023-05-08T17:26:06.831Z,13.90
2023-05-08T17:28:34.641Z,13.80
2023-05-08T17:31:02.431Z,13.70
2023-05-08T17:33:30.230Z,13.80
2023-05-08T17:35:58.103Z,13.80
2023-05-08T17:38:25.920Z,13.70
2023-05-08T17:40:53.692Z,13.70
2023-05-08T17:43:22.885Z,13.70
2023-05-08T17:45:50.744Z,13.70
2023-05-08T17:48:18.536Z,13.60
2023-05-08T17:50:46.876Z,13.60
2023-05-08T17:53:14.671Z,13.50
2023-05-08T17:55:42.456Z,13.60
2023-05-08T17:58:10.277Z,13.50
2023-05-08T18:00:39.413Z,13.40
2023-05-08T18:03:07.340Z,13.40
2023-05-08T18:05:35.264Z,13.50
2023-05-08T18:08:03.159Z,13.50
2023-05-08T18:10:31.284Z,13.40
2023-05-08T18:12:59.118Z,13.50
2023-05-08T18:15:27.078Z,13.40
2023-05-08T18:17:56.230Z,13.40
2023-05-08T18:20:24.034Z,13.50
2023-05-08T18:22:51.957Z,13.40
2023-05-08T18:25:20.721Z,13.40
2023-05-08T18:27:49.997Z,13.40
2023-05-08T18:30:17.925Z,13.40
2023-05-08T18:32:45.855Z,13.40
2023-05-08T18:35:15.090Z,13.40
2023-05-08T18:37:42.885Z,13.40
2023-05-08T18:40:11.733Z,13.40
2023-05-08T18:42:39.699Z,13.40
2023-05-08T18:45:08.715Z,13.30
2023-05-08T18:47:36.528Z,13.40
2023-05-08T18:50:04.918Z,13.50
2023-05-08T18:52:34.073Z,13.40
2023-05-08T18:55:01.877Z,13.50
2023-05-08T18:57:29.688Z,13.60
2023-05-08T18:59:57.552Z,13.70
2023-05-08T19:02:27.860Z,13.60
2023-05-08T19:04:55.827Z,13.60
2023-05-08T19:07:23.623Z,13.40
2023-05-08T19:09:52.783Z,13.30
2023-05-08T19:12:20.580Z,13.30
2023-05-08T19:14:49.094Z,13.20
2023-05-08T19:17:18.934Z,13.30
2023-05-08T19:19:46.707Z,13.10
2023-05-08T19:22:14.496Z,13.20
2023-05-08T19:24:42.378Z,13.10
2023-05-08T19:27:11.532Z,13.10
2023-05-08T19:29:39.307Z,13.00
2023-05-08T19:32:07.154Z,13.00
2023-05-08T19:34:36.998Z,13.10
2023-05-08T19:37:04.852Z,13.20
2023-05-08T19:39:32.654Z,13.20
2023-05-08T19:42:00.458Z,13.10
2023-05-08T19:44:31.481Z,13.00
2023-05-08T19:47:00.127Z,13.00
2023-05-08T19:49:28.789Z,13.00
2023-05-08T19:51:56.590Z,13.00
2023-05-08T19:54:24.371Z,13.00
2023-05-08T19:56:52.176Z,12.90
2023-05-08T19:59:19.955Z,12.90
2023-05-08T20:01:50.143Z,12.90
2023-05-08T20:04:17.986Z,12.80
2023-05-08T20:06:45.749Z,12.80
2023-05-08T20:09:13.535Z,12.90
2023-05-08T20:11:41.322Z,12.80
2023-05-08T20:14:09.143Z,12.90
2023-05-08T20:16:37.085Z,12.80
2023-05-08T20:19:06.410Z,12.90
2023-05-08T20:21:34.771Z,12.90
2023-05-08T20:24:02.662Z,12.90
2023-05-08T20:26:30.634Z,12.80
2023-05-08T20:28:58.489Z,12.80
2023-05-08T20:31:27.698Z,12.80
2023-05-08T20:33:55.634Z,12.80
2023-05-08T20:36:24.772Z,12.80
2023-05-08T20:38:52.565Z,12.90
2023-05-08T20:41:20.515Z,12.80
2023-05-08T20:43:48.642Z,12.80
2023-05-08T20:46:16.600Z,12.90
2023-05-08T20:48:44.737Z,12.90
2023-05-08T20:51:14.295Z,13.00
2023-05-08T20:53:45.731Z,13.00
2023-05-08T20:56:17.256Z,12.90
2023-05-08T20:58:47.062Z,12.80
2023-05-08T21:01:14.880Z,12.90
2023-05-08T21:03:42.713Z,12.80
2023-05-08T21:06:10.593Z,12.80
2023-05-08T21:08:38.381Z,12.90
2023-05-08T21:11:07.529Z,12.80
2023-05-08T21:13:35.505Z,12.90
2023-05-08T21:16:04.220Z,12.70
2023-05-08T21:18:32.156Z,12.60
2023-05-08T21:20:59.939Z,12.60
2023-05-08T21:23:27.788Z,12.60
2023-05-08T21:25:55.554Z,12.40
2023-05-08T21:28:24.689Z,12.50
2023-05-08T21:30:52.455Z,12.40
2023-05-08T21:33:20.573Z,12.40
2023-05-08T21:35:48.413Z,12.50
2023-05-08T21:38:16.222Z,12.50
2023-05-08T21:40:44.006Z,12.60
2023-05-08T21:43:11.798Z,12.50
2023-05-08T21:45:40.956Z,12.40
2023-05-08T21:48:08.766Z,12.60
2023-05-08T21:50:36.563Z,12.70
2023-05-08T21:53:04.338Z,12.60
2023-05-08T21:55:32.542Z,12.40
2023-05-08T21:58:00.425Z,12.60
2023-05-08T22:00:28.210Z,12.50
2023-05-08T22:02:57.433Z,12.50
2023-05-08T22:05:25.355Z,12.40
2023-05-08T22:07:53.880Z,12.20
2023-05-08T22:10:22.357Z,12.20
2023-05-08T22:12:50.199Z,12.20
2023-05-08T22:15:28.962Z,12.40
2023-05-08T22:17:59.725Z,12.40
2023-05-08T22:20:27.635Z,12.30
2023-05-08T22:22:55.454Z,12.30
2023-05-08T22:25:23.254Z,12.30
2023-05-08T22:27:51.036Z,12.40
2023-05-08T22:30:18.838Z,12.40
2023-05-08T22:32:46.827Z,12.30
2023-05-08T22:35:16.093Z,12.20
2023-05-08T22:37:43.965Z,12.10
2023-05-08T22:40:12.424Z,12.20
2023-05-08T22:42:40.768Z,12.10
2023-05-08T22:45:09.882Z,12.00
2023-05-08T22:47:37.700Z,12.00
2023-05-08T22:50:08.571Z,12.00
2023-05-08T22:52:37.770Z,12.10
2023-05-08T22:55:06.374Z,11.90
2023-05-08T22:57:34.143Z,11.80
2023-05-08T23:00:01.919Z,11.80
2023-05-08T23:02:32.458Z,12.00
2023-05-08T23:05:00.397Z,11.80
2023-05-08T23:07:28.322Z,11.60
2023-05-08T23:09:57.456Z,11.60
2023-05-08T23:12:25.232Z,11.60
2023-05-08T23:14:53.100Z,11.50
2023-05-08T23:17:20.871Z,11.60
2023-05-08T23:19:48.645Z,11.70
2023-05-08T23:22:16.452Z,11.80
2023-05-08T23:24:44.227Z,11.60
2023-05-08T23:27:13.372Z,11.60
2023-05-08T23:29:41.461Z,11.50
2023-05-08T23:32:09.254Z,11.60
2023-05-08T23:34:37.038Z,11.70
2023-05-08T23:37:04.825Z,11.70
2023-05-08T23:39:33.786Z,11.50
2023-05-08T23:42:01.565Z,11.30
2023-05-08T23:44:30.725Z,11.20
2023-05-08T23:46:58.507Z,11.20
2023-05-08T23:49:26.449Z,11.10
2023-05-08T23:51:54.204Z,11.00
2023-05-08T23:54:22.014Z,11.10
2023-05-08T23:56:49.842Z,11.20
2023-05-08T23:59:17.675Z,11.10
